createdAt,value
2022-10-24T00:04:45.492Z,19.96
2022-10-24T00:09:48.888Z,19.95
2022-10-24T00:14:52.195Z,19.93
2022-10-24T00:19:55.610Z,19.91
2022-10-24T00:24:58.965Z,19.90
2022-10-24T00:30:03.717Z,19.90
2022-10-24T00:35:07.561Z,19.89
2022-10-24T00:40:16.291Z,19.92
2022-10-24T00:45:44.881Z,19.91
2022-10-24T00:50:51.430Z,19.90
2022-10-24T00:55:57.992Z,19.88
2022-10-24T01:01:02.313Z,19.88
2022-10-24T01:06:33.384Z,19.87
2022-10-24T01:11:43.099Z,19.86
2022-10-24T01:16:51.286Z,19.86
2022-10-24T01:22:01.453Z,19.85
2022-10-24T01:27:08.488Z,19.85
2022-10-24T01:32:34.090Z,19.84
2022-10-24T01:37:41.641Z,19.82
2022-10-24T01:42:49.550Z,19.86
2022-10-24T01:47:56.014Z,19.89
2022-10-24T01:53:01.067Z,19.90
2022-10-24T01:58:04.659Z,19.91
2022-10-24T02:03:32.466Z,19.91
2022-10-24T02:08:42.654Z,19.91
2022-10-24T02:14:03.055Z,19.90
2022-10-24T02:19:06.646Z,19.90
2022-10-24T02:24:40.921Z,19.92
2022-10-24T02:30:01.815Z,19.91
2022-10-24T02:35:08.791Z,19.90
2022-10-24T02:40:15.595Z,19.90
2022-10-24T02:45:21.260Z,19.89
2022-10-24T02:50:25.449Z,19.91
2022-10-24T02:55:29.131Z,19.91
2022-10-24T03:00:32.602Z,19.90
2022-10-24T03:05:36.155Z,19.91
2022-10-24T03:10:39.504Z,19.92
2022-10-24T03:15:42.956Z,19.90
2022-10-24T03:20:46.866Z,19.88
2022-10-24T03:25:50.382Z,19.85
2022-10-24T03:30:53.893Z,19.88
2022-10-24T03:35:57.924Z,19.86
2022-10-24T03:41:01.253Z,19.86
2022-10-24T03:46:04.699Z,19.86
2022-10-24T03:51:08.032Z,19.89
2022-10-24T03:56:11.225Z,19.88
2022-10-24T04:01:14.814Z,19.89
2022-10-24T04:06:18.423Z,19.91
2022-10-24T04:11:21.573Z,19.92
2022-10-24T04:16:24.687Z,19.94
2022-10-24T04:21:28.306Z,19.96
2022-10-24T04:26:31.680Z,20.00
2022-10-24T04:31:35.130Z,20.08
2022-10-24T04:36:38.400Z,20.15
2022-10-24T04:41:41.809Z,20.23
2022-10-24T04:46:47.969Z,20.31
2022-10-24T04:51:53.938Z,20.41
2022-10-24T04:56:58.182Z,20.54
2022-10-24T05:02:01.673Z,20.67
2022-10-24T05:07:05.343Z,20.78
2022-10-24T05:12:08.557Z,20.94
2022-10-24T05:17:11.957Z,21.11
2022-10-24T05:22:16.292Z,21.45
2022-10-24T05:27:21.343Z,21.81
2022-10-24T05:32:25.416Z,21.96
2022-10-24T05:42:38.783Z,22.17
2022-10-24T05:47:42.703Z,22.36
2022-10-24T05:52:47.327Z,22.77
2022-10-24T05:57:50.931Z,22.93
2022-10-24T06:02:55.866Z,22.90
2022-10-24T06:08:00.004Z,23.07
2022-10-24T06:13:05.047Z,23.07
2022-10-24T06:18:09.179Z,22.99
2022-10-24T06:23:12.799Z,22.98
2022-10-24T06:28:16.188Z,23.14
2022-10-24T06:33:19.399Z,23.42
2022-10-24T06:38:22.758Z,23.65
2022-10-24T06:43:26.459Z,23.56
2022-10-24T06:48:29.908Z,23.60
2022-10-24T06:53:34.130Z,23.72
2022-10-24T06:58:38.534Z,23.64
2022-10-24T07:03:43.615Z,23.60
2022-10-24T07:08:47.708Z,23.66
2022-10-24T07:13:52.528Z,23.73
2022-10-24T07:18:57.426Z,23.83
2022-10-24T07:24:01.130Z,23.80
2022-10-24T07:29:04.803Z,23.73
2022-10-24T07:34:09.479Z,23.73
2022-10-24T07:39:14.169Z,23.76
2022-10-24T07:44:17.849Z,23.69
2022-10-24T07:49:21.235Z,23.72
2022-10-24T07:54:24.985Z,23.72
2022-10-24T07:59:41.315Z,23.78
2022-10-24T08:04:45.956Z,23.85
2022-10-24T08:09:49.753Z,23.89
2022-10-24T08:14:53.537Z,23.85
2022-10-24T08:19:56.762Z,23.88
2022-10-24T08:25:01.187Z,23.92
2022-10-24T08:30:06.760Z,24.02
2022-10-24T08:35:10.838Z,24.13
2022-10-24T08:40:19.773Z,24.07
2022-10-24T08:45:30.262Z,24.09
2022-10-24T08:50:35.882Z,24.11
2022-10-24T08:55:50.048Z,24.21
2022-10-24T09:00:58.166Z,24.27
2022-10-24T09:06:06.588Z,24.38
2022-10-24T09:11:15.154Z,24.42
2022-10-24T09:16:23.194Z,24.46
2022-10-24T09:21:26.900Z,24.53
2022-10-24T09:26:33.357Z,24.62
2022-10-24T09:31:37.647Z,24.67
2022-10-24T09:36:41.045Z,24.71
2022-10-24T09:41:46.870Z,24.73
2022-10-24T09:46:50.055Z,24.76
2022-10-24T09:52:22.968Z,24.83
2022-10-24T09:57:28.096Z,24.83
2022-10-24T10:02:36.967Z,24.91
2022-10-24T10:07:45.328Z,24.93
2022-10-24T10:13:03.239Z,24.96
2022-10-24T10:18:29.259Z,24.96
2022-10-24T10:23:40.138Z,24.95
2022-10-24T10:28:56.048Z,24.93
2022-10-24T10:34:28.668Z,24.90
2022-10-24T10:40:01.937Z,24.91
2022-10-24T10:45:34.425Z,24.88
2022-10-24T10:50:48.790Z,24.88
2022-10-24T10:56:20.084Z,24.71
2022-10-24T11:01:43.493Z,24.63
2022-10-24T11:07:07.177Z,24.66
2022-10-24T11:12:23.436Z,24.62
2022-10-24T11:17:42.357Z,24.67
2022-10-24T11:23:14.233Z,24.72
2022-10-24T11:28:27.196Z,24.72
2022-10-24T11:33:53.704Z,24.73
2022-10-24T11:39:14.723Z,24.65
2022-10-24T11:44:39.248Z,24.56
2022-10-24T11:49:50.867Z,24.57
2022-10-24T11:55:00.105Z,24.48
2022-10-24T12:00:04.887Z,24.36
2022-10-24T12:05:22.461Z,24.38
2022-10-24T12:10:47.774Z,24.35
2022-10-24T12:16:13.907Z,24.23
2022-10-24T12:21:26.462Z,24.19
2022-10-24T12:26:31.793Z,24.20
2022-10-24T12:31:37.959Z,24.32
2022-10-24T12:37:22.870Z,24.29
2022-10-24T12:42:26.171Z,24.22
2022-10-24T12:47:42.677Z,24.21
2022-10-24T12:52:46.798Z,24.11
2022-10-24T12:57:51.360Z,24.07
2022-10-24T13:02:58.052Z,23.96
2022-10-24T13:08:29.219Z,23.87
2022-10-24T13:13:48.968Z,23.84
2022-10-24T13:19:15.207Z,23.75
2022-10-24T13:24:18.884Z,23.67
2022-10-24T13:29:21.998Z,23.62
2022-10-24T13:34:28.132Z,23.58
2022-10-24T13:39:38.738Z,23.51
2022-10-24T13:44:45.470Z,23.42
2022-10-24T13:49:58.022Z,23.36
2022-10-24T13:55:24.659Z,23.33
2022-10-24T14:00:37.162Z,23.30
2022-10-24T14:05:47.286Z,23.21
2022-10-24T14:10:55.265Z,23.21
2022-10-24T14:16:06.659Z,23.10
2022-10-24T14:21:22.259Z,23.03
2022-10-24T14:26:26.103Z,22.86
2022-10-24T14:31:32.528Z,22.81
2022-10-24T14:36:39.520Z,22.70
2022-10-24T14:41:43.214Z,22.61
2022-10-24T14:47:00.915Z,22.54
2022-10-24T14:52:07.718Z,22.45
2022-10-24T14:57:21.032Z,22.38
2022-10-24T15:02:30.169Z,22.32
2022-10-24T15:07:44.925Z,22.25
2022-10-24T15:13:00.691Z,22.18
2022-10-24T15:18:08.349Z,22.17
2022-10-24T15:23:22.385Z,22.14
2022-10-24T15:28:57.832Z,22.08
2022-10-24T15:34:01.081Z,22.04
2022-10-24T15:39:12.228Z,22.04
2022-10-24T15:44:22.267Z,22.06
2022-10-24T15:49:25.726Z,22.02
2022-10-24T15:54:29.358Z,22.02
2022-10-24T15:59:33.399Z,21.99
2022-10-24T16:04:36.859Z,21.97
2022-10-24T16:09:40.516Z,21.95
2022-10-24T16:14:43.815Z,21.92
2022-10-24T16:19:48.353Z,21.91
2022-10-24T16:24:54.988Z,21.91
2022-10-24T16:29:58.378Z,21.91
2022-10-24T16:35:01.669Z,21.89
2022-10-24T16:40:06.369Z,21.85
2022-10-24T16:45:10.068Z,21.76
2022-10-24T16:50:20.947Z,21.77
2022-10-24T16:55:24.360Z,21.70
2022-10-24T17:00:28.668Z,21.68
2022-10-24T17:05:32.153Z,21.63
2022-10-24T17:10:35.907Z,21.55
2022-10-24T17:15:46.260Z,21.57
2022-10-24T17:20:50.230Z,21.55
2022-10-24T17:25:53.734Z,21.52
2022-10-24T17:30:57.239Z,21.50
2022-10-24T17:36:00.889Z,21.48
2022-10-24T17:41:35.975Z,21.46
2022-10-24T17:46:39.976Z,21.45
2022-10-24T17:51:45.128Z,21.46
2022-10-24T17:56:51.026Z,21.44
2022-10-24T18:01:54.568Z,21.42
2022-10-24T18:06:58.333Z,21.43
2022-10-24T18:12:03.894Z,21.42
2022-10-24T18:17:07.421Z,21.40
2022-10-24T18:22:13.108Z,21.41
2022-10-24T18:27:20.248Z,21.39
2022-10-24T18:32:23.739Z,21.40
2022-10-24T18:37:28.192Z,21.40
2022-10-24T18:43:06.360Z,21.37
2022-10-24T18:48:13.137Z,21.37
2022-10-24T18:53:27.368Z,21.39
2022-10-24T18:58:31.919Z,21.39
2022-10-24T19:03:38.719Z,21.36
2022-10-24T19:08:44.651Z,21.33
2022-10-24T19:13:48.207Z,21.36
2022-10-24T19:18:56.452Z,21.36
2022-10-24T19:24:00.614Z,21.34
2022-10-24T19:29:05.829Z,21.35
2022-10-24T19:34:10.462Z,21.35
2022-10-24T19:39:16.918Z,21.34
2022-10-24T19:44:22.184Z,21.35
2022-10-24T19:49:30.851Z,21.31
2022-10-24T19:54:34.818Z,21.31
2022-10-24T19:59:43.199Z,21.32
2022-10-24T20:04:50.802Z,21.32
2022-10-24T20:09:54.459Z,21.34
2022-10-24T20:14:59.022Z,21.32
2022-10-24T20:20:12.810Z,21.32
2022-10-24T20:25:16.737Z,21.32
2022-10-24T20:30:20.513Z,21.30
2022-10-24T20:40:34.935Z,21.30
2022-10-24T20:45:42.901Z,21.29
2022-10-24T20:50:46.756Z,21.25
2022-10-24T20:55:50.275Z,21.26
2022-10-24T21:00:54.444Z,21.24
2022-10-24T21:06:05.104Z,21.25
2022-10-24T21:11:13.878Z,21.24
2022-10-24T21:16:17.242Z,21.22
2022-10-24T21:21:21.746Z,21.20
2022-10-24T21:26:25.464Z,21.22
2022-10-24T21:31:32.757Z,21.18
2022-10-24T21:36:38.929Z,21.19
2022-10-24T21:41:42.919Z,21.18
2022-10-24T21:46:46.890Z,21.16
2022-10-24T21:51:53.181Z,21.17
2022-10-24T21:56:56.617Z,21.12
2022-10-24T22:02:00.403Z,21.15
2022-10-24T22:07:16.400Z,21.13
2022-10-24T22:12:21.365Z,21.13
2022-10-24T22:17:24.691Z,21.12
2022-10-24T22:22:30.787Z,21.11
2022-10-24T22:27:34.502Z,21.10
2022-10-24T22:32:38.717Z,21.10
2022-10-24T22:37:44.672Z,21.09
2022-10-24T22:42:48.823Z,21.11
2022-10-24T22:47:55.378Z,21.13
2022-10-24T22:52:59.345Z,21.11
2022-10-24T22:58:05.131Z,21.10
2022-10-24T23:03:37.834Z,21.08
2022-10-24T23:08:45.863Z,21.08
2022-10-24T23:13:53.647Z,21.04
2022-10-24T23:18:57.346Z,21.04
2022-10-24T23:24:01.736Z,21.01
2022-10-24T23:29:29.063Z,20.97
2022-10-24T23:34:35.627Z,20.92
2022-10-24T23:39:42.049Z,20.87
2022-10-24T23:44:45.852Z,20.84
2022-10-24T23:50:07.247Z,20.79
2022-10-24T23:55:16.974Z,20.71
